sensor_id;sensor_type;location;lat;lon;timestamp;temperature;humidity
1614;DHT22;800;48.824;9.346;2024-02-26T00:01:00;14.20;48.30
1614;DHT22;800;48.824;9.346;2024-02-26T00:03:27;14.30;47.80
1614;DHT22;800;48.824;9.346;2024-02-26T00:05:52;14.50;47.90
1614;DHT22;800;48.824;9.346;2024-02-26T00:08:18;14.60;46.50
1614;DHT22;800;48.824;9.346;2024-02-26T00:10:44;14.60;45.80
1614;DHT22;800;48.824;9.346;2024-02-26T00:13:09;14.50;46.30
1614;DHT22;800;48.824;9.346;2024-02-26T00:15:35;14.10;47.00
1614;DHT22;800;48.824;9.346;2024-02-26T00:18:01;14.40;47.60
1614;DHT22;800;48.824;9.346;2024-02-26T00:20:26;14.70;47.00
1614;DHT22;800;48.824;9.346;2024-02-26T00:22:52;14.80;46.80
1614;DHT22;800;48.824;9.346;2024-02-26T00:25:18;15.10;46.80
1614;DHT22;800;48.824;9.346;2024-02-26T00:27:43;15.40;46.00
1614;DHT22;800;48.824;9.346;2024-02-26T00:30:10;15.50;45.30
1614;DHT22;800;48.824;9.346;2024-02-26T00:32:35;15.30;45.20
1614;DHT22;800;48.824;9.346;2024-02-26T00:35:01;15.20;45.50
1614;DHT22;800;48.824;9.346;2024-02-26T00:37:26;15.10;46.00
1614;DHT22;800;48.824;9.346;2024-02-26T00:39:52;15.10;45.90
1614;DHT22;800;48.824;9.346;2024-02-26T00:42:19;15.10;45.20
1614;DHT22;800;48.824;9.346;2024-02-26T00:44:45;15.10;45.30
1614;DHT22;800;48.824;9.346;2024-02-26T00:47:10;15.20;45.40
1614;DHT22;800;48.824;9.346;2024-02-26T00:49:37;15.20;45.30
1614;DHT22;800;48.824;9.346;2024-02-26T00:52:02;15.20;44.50
1614;DHT22;800;48.824;9.346;2024-02-26T00:54:28;15.10;45.20
1614;DHT22;800;48.824;9.346;2024-02-26T00:56:54;15.00;44.70
1614;DHT22;800;48.824;9.346;2024-02-26T00:59:19;14.90;45.40
1614;DHT22;800;48.824;9.346;2024-02-26T01:01:45;15.00;45.20
1614;DHT22;800;48.824;9.346;2024-02-26T01:04:10;14.80;46.20
1614;DHT22;800;48.824;9.346;2024-02-26T01:06:37;14.90;45.80
1614;DHT22;800;48.824;9.346;2024-02-26T01:09:03;15.00;44.90
1614;DHT22;800;48.824;9.346;2024-02-26T01:11:29;14.90;45.40
1614;DHT22;800;48.824;9.346;2024-02-26T01:13:54;14.90;45.30
1614;DHT22;800;48.824;9.346;2024-02-26T01:16:22;15.00;45.70
1614;DHT22;800;48.824;9.346;2024-02-26T01:18:48;15.10;45.20
1614;DHT22;800;48.824;9.346;2024-02-26T01:21:13;15.30;45.00
1614;DHT22;800;48.824;9.346;2024-02-26T01:23:39;15.30;44.80
1614;DHT22;800;48.824;9.346;2024-02-26T01:26:05;15.30;44.80
1614;DHT22;800;48.824;9.346;2024-02-26T01:28:31;15.30;45.10
1614;DHT22;800;48.824;9.346;2024-02-26T01:30:56;15.40;44.60
1614;DHT22;800;48.824;9.346;2024-02-26T01:33:22;15.50;44.10
1614;DHT22;800;48.824;9.346;2024-02-26T01:35:47;15.60;43.90
1614;DHT22;800;48.824;9.346;2024-02-26T01:38:13;15.50;43.00
1614;DHT22;800;48.824;9.346;2024-02-26T01:40:38;15.50;44.00
1614;DHT22;800;48.824;9.346;2024-02-26T01:43:04;15.50;44.10
1614;DHT22;800;48.824;9.346;2024-02-26T01:45:29;15.50;44.00
1614;DHT22;800;48.824;9.346;2024-02-26T01:47:55;15.40;44.40
1614;DHT22;800;48.824;9.346;2024-02-26T01:50:22;15.00;44.40
1614;DHT22;800;48.824;9.346;2024-02-26T01:52:50;15.20;45.00
1614;DHT22;800;48.824;9.346;2024-02-26T01:55:17;15.20;43.40
1614;DHT22;800;48.824;9.346;2024-02-26T01:57:45;15.30;44.80
1614;DHT22;800;48.824;9.346;2024-02-26T02:00:12;15.50;44.60
1614;DHT22;800;48.824;9.346;2024-02-26T02:02:39;15.60;43.30
1614;DHT22;800;48.824;9.346;2024-02-26T02:05:08;15.70;42.70
1614;DHT22;800;48.824;9.346;2024-02-26T02:07:35;15.80;42.40
1614;DHT22;800;48.824;9.346;2024-02-26T02:10:01;15.90;42.80
1614;DHT22;800;48.824;9.346;2024-02-26T02:12:28;16.00;42.50
1614;DHT22;800;48.824;9.346;2024-02-26T02:14:53;16.10;42.80
1614;DHT22;800;48.824;9.346;2024-02-26T02:17:19;16.10;42.10
1614;DHT22;800;48.824;9.346;2024-02-26T02:19:45;16.30;42.40
1614;DHT22;800;48.824;9.346;2024-02-26T02:22:11;16.40;42.30
1614;DHT22;800;48.824;9.346;2024-02-26T02:24:36;16.50;42.70
1614;DHT22;800;48.824;9.346;2024-02-26T02:27:02;16.60;42.40
1614;DHT22;800;48.824;9.346;2024-02-26T02:29:28;16.70;41.80
1614;DHT22;800;48.824;9.346;2024-02-26T02:31:54;16.70;41.20
1614;DHT22;800;48.824;9.346;2024-02-26T02:51:10;16.40;42.30
1614;DHT22;800;48.824;9.346;2024-02-26T02:53:36;16.40;41.90
1614;DHT22;800;48.824;9.346;2024-02-26T02:56:01;16.30;42.60
1614;DHT22;800;48.824;9.346;2024-02-26T02:58:27;16.20;43.80
1614;DHT22;800;48.824;9.346;2024-02-26T03:00:53;16.40;43.00
1614;DHT22;800;48.824;9.346;2024-02-26T03:03:20;16.40;41.70
1614;DHT22;800;48.824;9.346;2024-02-26T03:05:46;16.40;42.20
1614;DHT22;800;48.824;9.346;2024-02-26T03:08:11;16.50;43.90
1614;DHT22;800;48.824;9.346;2024-02-26T03:10:37;16.60;44.10
1614;DHT22;800;48.824;9.346;2024-02-26T03:13:02;16.70;43.60
1614;DHT22;800;48.824;9.346;2024-02-26T03:15:28;16.80;43.50
1614;DHT22;800;48.824;9.346;2024-02-26T03:17:54;16.90;43.30
1614;DHT22;800;48.824;9.346;2024-02-26T03:20:19;17.00;43.00
1614;DHT22;800;48.824;9.346;2024-02-26T03:22:45;16.90;43.20
1614;DHT22;800;48.824;9.346;2024-02-26T03:25:11;16.80;43.90
1614;DHT22;800;48.824;9.346;2024-02-26T03:27:36;16.70;43.80
1614;DHT22;800;48.824;9.346;2024-02-26T03:30:02;16.60;43.40
1614;DHT22;800;48.824;9.346;2024-02-26T03:32:29;16.50;42.90
1614;DHT22;800;48.824;9.346;2024-02-26T03:34:54;16.50;42.60
1614;DHT22;800;48.824;9.346;2024-02-26T03:37:21;16.30;42.10
1614;DHT22;800;48.824;9.346;2024-02-26T03:39:46;15.90;42.30
1614;DHT22;800;48.824;9.346;2024-02-26T03:42:12;15.70;42.70
1614;DHT22;800;48.824;9.346;2024-02-26T03:44:38;15.60;44.20
1614;DHT22;800;48.824;9.346;2024-02-26T03:47:03;15.50;44.60
1614;DHT22;800;48.824;9.346;2024-02-26T03:49:29;15.60;44.70
1614;DHT22;800;48.824;9.346;2024-02-26T03:51:54;15.50;44.20
1614;DHT22;800;48.824;9.346;2024-02-26T03:54:20;15.40;44.60
1614;DHT22;800;48.824;9.346;2024-02-26T03:56:45;15.60;44.20
1614;DHT22;800;48.824;9.346;2024-02-26T03:59:11;15.70;44.40
1614;DHT22;800;48.824;9.346;2024-02-26T04:01:36;15.70;43.30
1614;DHT22;800;48.824;9.346;2024-02-26T04:04:02;15.70;44.60
1614;DHT22;800;48.824;9.346;2024-02-26T04:06:30;15.80;44.00
1614;DHT22;800;48.824;9.346;2024-02-26T04:08:56;15.90;44.50
1614;DHT22;800;48.824;9.346;2024-02-26T04:11:21;15.90;43.90
1614;DHT22;800;48.824;9.346;2024-02-26T04:13:47;15.80;43.70
1614;DHT22;800;48.824;9.346;2024-02-26T04:16:15;14.90;44.70
1614;DHT22;800;48.824;9.346;2024-02-26T04:18:42;14.20;45.60
1614;DHT22;800;48.824;9.346;2024-02-26T04:21:07;14.20;46.40
1614;DHT22;800;48.824;9.346;2024-02-26T04:23:33;13.70;47.20
1614;DHT22;800;48.824;9.346;2024-02-26T04:25:58;13.50;48.30
1614;DHT22;800;48.824;9.346;2024-02-26T04:28:24;13.40;48.60
1614;DHT22;800;48.824;9.346;2024-02-26T04:30:51;13.40;48.60
1614;DHT22;800;48.824;9.346;2024-02-26T04:33:17;13.50;48.40
1614;DHT22;800;48.824;9.346;2024-02-26T04:35:42;13.30;48.30
1614;DHT22;800;48.824;9.346;2024-02-26T04:38:08;13.30;48.60
1614;DHT22;800;48.824;9.346;2024-02-26T04:40:33;12.90;49.20
1614;DHT22;800;48.824;9.346;2024-02-26T04:42:59;12.70;49.60
1614;DHT22;800;48.824;9.346;2024-02-26T04:45:24;12.50;49.80
1614;DHT22;800;48.824;9.346;2024-02-26T04:47:50;12.20;50.60
1614;DHT22;800;48.824;9.346;2024-02-26T04:50:15;12.00;51.30
1614;DHT22;800;48.824;9.346;2024-02-26T04:52:41;12.00;51.70
1614;DHT22;800;48.824;9.346;2024-02-26T04:55:07;11.40;52.20
1614;DHT22;800;48.824;9.346;2024-02-26T04:57:33;11.10;53.30
1614;DHT22;800;48.824;9.346;2024-02-26T04:59:59;11.00;53.60
1614;DHT22;800;48.824;9.346;2024-02-26T05:02:24;11.00;53.80
1614;DHT22;800;48.824;9.346;2024-02-26T05:04:50;11.00;53.90
1614;DHT22;800;48.824;9.346;2024-02-26T05:07:15;11.30;53.50
1614;DHT22;800;48.824;9.346;2024-02-26T05:09:43;11.60;52.70
1614;DHT22;800;48.824;9.346;2024-02-26T05:12:09;11.90;51.80
1614;DHT22;800;48.824;9.346;2024-02-26T05:14:35;11.60;51.90
1614;DHT22;800;48.824;9.346;2024-02-26T05:17:00;11.50;52.50
1614;DHT22;800;48.824;9.346;2024-02-26T05:19:26;11.50;52.80
1614;DHT22;800;48.824;9.346;2024-02-26T05:21:51;11.40;52.70
1614;DHT22;800;48.824;9.346;2024-02-26T05:24:18;11.40;52.70
1614;DHT22;800;48.824;9.346;2024-02-26T05:26:44;11.30;52.50
1614;DHT22;800;48.824;9.346;2024-02-26T05:29:10;11.40;52.30
1614;DHT22;800;48.824;9.346;2024-02-26T05:31:36;11.60;51.70
1614;DHT22;800;48.824;9.346;2024-02-26T05:34:01;11.60;51.50
1614;DHT22;800;48.824;9.346;2024-02-26T05:36:27;11.60;51.60
1614;DHT22;800;48.824;9.346;2024-02-26T05:38:54;11.80;51.50
1614;DHT22;800;48.824;9.346;2024-02-26T05:41:20;11.90;51.00
1614;DHT22;800;48.824;9.346;2024-02-26T05:43:49;12.10;50.70
1614;DHT22;800;48.824;9.346;2024-02-26T05:46:19;12.30;50.30
1614;DHT22;800;48.824;9.346;2024-02-26T05:48:50;12.60;50.00
1614;DHT22;800;48.824;9.346;2024-02-26T05:51:16;12.90;49.60
1614;DHT22;800;48.824;9.346;2024-02-26T05:53:41;13.10;49.30
1614;DHT22;800;48.824;9.346;2024-02-26T05:56:07;13.20;49.10
1614;DHT22;800;48.824;9.346;2024-02-26T05:58:33;13.30;49.40
1614;DHT22;800;48.824;9.346;2024-02-26T06:00:58;13.40;49.60
1614;DHT22;800;48.824;9.346;2024-02-26T06:03:25;13.40;49.50
1614;DHT22;800;48.824;9.346;2024-02-26T06:05:51;13.50;49.50
1614;DHT22;800;48.824;9.346;2024-02-26T06:08:16;13.50;50.00
1614;DHT22;800;48.824;9.346;2024-02-26T06:10:42;13.60;50.70
1614;DHT22;800;48.824;9.346;2024-02-26T06:13:07;13.50;51.00
1614;DHT22;800;48.824;9.346;2024-02-26T06:15:33;13.60;51.60
1614;DHT22;800;48.824;9.346;2024-02-26T06:17:58;13.60;52.20
1614;DHT22;800;48.824;9.346;2024-02-26T06:20:24;13.50;52.60
1614;DHT22;800;48.824;9.346;2024-02-26T06:22:51;13.50;52.90
1614;DHT22;800;48.824;9.346;2024-02-26T06:25:16;13.60;52.70
1614;DHT22;800;48.824;9.346;2024-02-26T06:27:42;13.70;53.20
1614;DHT22;800;48.824;9.346;2024-02-26T06:30:08;13.80;53.00
1614;DHT22;800;48.824;9.346;2024-02-26T06:32:36;13.90;52.80
1614;DHT22;800;48.824;9.346;2024-02-26T06:35:02;14.00;52.50
1614;DHT22;800;48.824;9.346;2024-02-26T06:37:32;14.10;52.00
1614;DHT22;800;48.824;9.346;2024-02-26T06:39:59;14.30;52.40
1614;DHT22;800;48.824;9.346;2024-02-26T06:42:24;14.30;51.60
1614;DHT22;800;48.824;9.346;2024-02-26T06:44:50;14.40;51.50
1614;DHT22;800;48.824;9.346;2024-02-26T06:47:15;14.50;51.30
1614;DHT22;800;48.824;9.346;2024-02-26T06:49:41;14.50;50.90
1614;DHT22;800;48.824;9.346;2024-02-26T06:52:06;14.50;50.90
1614;DHT22;800;48.824;9.346;2024-02-26T06:54:32;14.30;50.70
1614;DHT22;800;48.824;9.346;2024-02-26T06:56:57;14.40;50.80
1614;DHT22;800;48.824;9.346;2024-02-26T06:59:23;14.50;50.90
1614;DHT22;800;48.824;9.346;2024-02-26T07:01:49;14.60;51.10
1614;DHT22;800;48.824;9.346;2024-02-26T07:04:14;14.60;50.90
1614;DHT22;800;48.824;9.346;2024-02-26T07:06:40;14.70;50.80
1614;DHT22;800;48.824;9.346;2024-02-26T07:09:06;14.60;50.80
1614;DHT22;800;48.824;9.346;2024-02-26T07:11:32;14.50;50.70
1614;DHT22;800;48.824;9.346;2024-02-26T07:13:57;14.60;50.80
1614;DHT22;800;48.824;9.346;2024-02-26T07:16:23;14.60;50.60
1614;DHT22;800;48.824;9.346;2024-02-26T07:18:49;14.60;50.60
1614;DHT22;800;48.824;9.346;2024-02-26T07:21:15;14.60;50.30
1614;DHT22;800;48.824;9.346;2024-02-26T07:23:40;14.60;50.80
1614;DHT22;800;48.824;9.346;2024-02-26T07:26:06;14.50;50.70
1614;DHT22;800;48.824;9.346;2024-02-26T07:28:33;14.60;50.80
1614;DHT22;800;48.824;9.346;2024-02-26T07:30:59;14.50;50.70
1614;DHT22;800;48.824;9.346;2024-02-26T07:33:24;14.50;51.20
1614;DHT22;800;48.824;9.346;2024-02-26T07:35:50;14.60;50.90
1614;DHT22;800;48.824;9.346;2024-02-26T07:38:15;14.70;50.90
1614;DHT22;800;48.824;9.346;2024-02-26T07:40:41;14.70;50.60
1614;DHT22;800;48.824;9.346;2024-02-26T07:43:07;14.70;50.40
1614;DHT22;800;48.824;9.346;2024-02-26T07:45:32;14.70;50.20
1614;DHT22;800;48.824;9.346;2024-02-26T07:47:58;14.80;50.30
1614;DHT22;800;48.824;9.346;2024-02-26T07:50:24;14.80;50.40
1614;DHT22;800;48.824;9.346;2024-02-26T07:52:49;14.60;51.10
1614;DHT22;800;48.824;9.346;2024-02-26T07:55:16;14.40;51.80
1614;DHT22;800;48.824;9.346;2024-02-26T07:57:42;14.50;51.80
1614;DHT22;800;48.824;9.346;2024-02-26T08:00:10;14.60;52.00
1614;DHT22;800;48.824;9.346;2024-02-26T08:02:36;14.70;51.80
1614;DHT22;800;48.824;9.346;2024-02-26T08:05:02;14.70;51.80
1614;DHT22;800;48.824;9.346;2024-02-26T08:07:27;14.70;52.10
1614;DHT22;800;48.824;9.346;2024-02-26T08:09:54;14.60;52.50
1614;DHT22;800;48.824;9.346;2024-02-26T08:12:19;14.70;52.50
1614;DHT22;800;48.824;9.346;2024-02-26T08:14:45;14.70;52.50
1614;DHT22;800;48.824;9.346;2024-02-26T08:17:10;14.80;51.90
1614;DHT22;800;48.824;9.346;2024-02-26T08:19:36;14.80;52.10
1614;DHT22;800;48.824;9.346;2024-02-26T08:22:02;14.80;52.10
1614;DHT22;800;48.824;9.346;2024-02-26T08:24:27;14.80;52.40
1614;DHT22;800;48.824;9.346;2024-02-26T08:26:53;14.80;52.60
1614;DHT22;800;48.824;9.346;2024-02-26T08:29:19;14.70;52.40
1614;DHT22;800;48.824;9.346;2024-02-26T08:31:44;14.20;53.20
1614;DHT22;800;48.824;9.346;2024-02-26T08:34:10;14.00;54.00
1614;DHT22;800;48.824;9.346;2024-02-26T08:36:36;14.10;54.10
1614;DHT22;800;48.824;9.346;2024-02-26T08:39:01;14.20;53.80
1614;DHT22;800;48.824;9.346;2024-02-26T08:41:27;14.30;54.00
1614;DHT22;800;48.824;9.346;2024-02-26T08:43:53;14.30;53.40
1614;DHT22;800;48.824;9.346;2024-02-26T08:46:18;14.30;53.30
1614;DHT22;800;48.824;9.346;2024-02-26T08:48:44;14.40;53.50
1614;DHT22;800;48.824;9.346;2024-02-26T08:51:09;14.30;53.80
1614;DHT22;800;48.824;9.346;2024-02-26T08:53:35;14.10;54.10
1614;DHT22;800;48.824;9.346;2024-02-26T08:56:01;14.20;54.20
1614;DHT22;800;48.824;9.346;2024-02-26T08:58:30;14.00;53.20
1614;DHT22;800;48.824;9.346;2024-02-26T09:00:55;14.00;54.40
1614;DHT22;800;48.824;9.346;2024-02-26T09:03:21;14.00;54.00
1614;DHT22;800;48.824;9.346;2024-02-26T09:05:47;14.00;54.30
1614;DHT22;800;48.824;9.346;2024-02-26T09:08:13;14.00;54.40
1614;DHT22;800;48.824;9.346;2024-02-26T09:10:39;14.00;54.10
1614;DHT22;800;48.824;9.346;2024-02-26T09:13:04;14.10;53.70
1614;DHT22;800;48.824;9.346;2024-02-26T09:15:30;14.30;53.30
1614;DHT22;800;48.824;9.346;2024-02-26T09:17:56;14.50;53.30
1614;DHT22;800;48.824;9.346;2024-02-26T09:20:21;14.50;53.20
1614;DHT22;800;48.824;9.346;2024-02-26T09:22:49;14.60;53.10
1614;DHT22;800;48.824;9.346;2024-02-26T09:25:14;14.80;52.80
1614;DHT22;800;48.824;9.346;2024-02-26T09:27:43;14.90;52.70
1614;DHT22;800;48.824;9.346;2024-02-26T09:30:13;14.90;52.60
1614;DHT22;800;48.824;9.346;2024-02-26T09:32:39;15.00;52.60
1614;DHT22;800;48.824;9.346;2024-02-26T09:35:08;15.00;52.90
1614;DHT22;800;48.824;9.346;2024-02-26T09:37:34;15.10;52.80
1614;DHT22;800;48.824;9.346;2024-02-26T09:40:02;15.20;52.60
1614;DHT22;800;48.824;9.346;2024-02-26T09:42:31;15.30;52.70
1614;DHT22;800;48.824;9.346;2024-02-26T09:45:00;15.10;51.90
1614;DHT22;800;48.824;9.346;2024-02-26T09:47:31;15.00;52.50
1614;DHT22;800;48.824;9.346;2024-02-26T09:49:59;15.00;52.30
1614;DHT22;800;48.824;9.346;2024-02-26T09:52:25;14.70;52.60
1614;DHT22;800;48.824;9.346;2024-02-26T09:54:53;14.90;52.20
1614;DHT22;800;48.824;9.346;2024-02-26T09:57:19;15.00;51.40
1614;DHT22;800;48.824;9.346;2024-02-26T09:59:46;14.90;51.30
1614;DHT22;800;48.824;9.346;2024-02-26T10:02:14;14.90;50.50
1614;DHT22;800;48.824;9.346;2024-02-26T10:04:40;15.00;50.60
1614;DHT22;800;48.824;9.346;2024-02-26T10:07:13;15.00;50.60
1614;DHT22;800;48.824;9.346;2024-02-26T10:09:39;14.90;51.40
1614;DHT22;800;48.824;9.346;2024-02-26T10:12:07;14.70;51.30
1614;DHT22;800;48.824;9.346;2024-02-26T10:14:34;14.60;51.80
1614;DHT22;800;48.824;9.346;2024-02-26T10:16:59;14.30;52.60
1614;DHT22;800;48.824;9.346;2024-02-26T10:19:29;14.30;52.90
1614;DHT22;800;48.824;9.346;2024-02-26T10:22:01;14.30;53.70
1614;DHT22;800;48.824;9.346;2024-02-26T10:24:29;14.10;53.20
1614;DHT22;800;48.824;9.346;2024-02-26T10:26:55;14.30;53.40
1614;DHT22;800;48.824;9.346;2024-02-26T10:29:23;14.50;53.40
1614;DHT22;800;48.824;9.346;2024-02-26T10:31:51;14.50;52.80
1614;DHT22;800;48.824;9.346;2024-02-26T10:34:16;14.60;52.10
1614;DHT22;800;48.824;9.346;2024-02-26T10:36:42;14.70;52.00
1614;DHT22;800;48.824;9.346;2024-02-26T10:39:09;15.20;51.10
1614;DHT22;800;48.824;9.346;2024-02-26T10:41:36;15.50;50.10
1614;DHT22;800;48.824;9.346;2024-02-26T10:44:02;15.40;49.00
1614;DHT22;800;48.824;9.346;2024-02-26T10:46:28;15.40;48.70
1614;DHT22;800;48.824;9.346;2024-02-26T10:48:54;15.00;48.90
1614;DHT22;800;48.824;9.346;2024-02-26T10:51:30;14.70;49.60
1614;DHT22;800;48.824;9.346;2024-02-26T10:53:59;15.10;50.30
1614;DHT22;800;48.824;9.346;2024-02-26T10:56:29;15.70;48.40
1614;DHT22;800;48.824;9.346;2024-02-26T10:58:58;16.10;47.30
1614;DHT22;800;48.824;9.346;2024-02-26T11:01:25;16.50;46.90
1614;DHT22;800;48.824;9.346;2024-02-26T11:03:52;16.80;46.00
1614;DHT22;800;48.824;9.346;2024-02-26T11:06:19;16.80;45.40
1614;DHT22;800;48.824;9.346;2024-02-26T11:08:49;17.00;45.40
1614;DHT22;800;48.824;9.346;2024-02-26T11:11:17;17.00;44.60
1614;DHT22;800;48.824;9.346;2024-02-26T11:13:45;17.20;44.70
1614;DHT22;800;48.824;9.346;2024-02-26T11:16:16;17.40;44.70
1614;DHT22;800;48.824;9.346;2024-02-26T11:18:42;17.60;44.50
1614;DHT22;800;48.824;9.346;2024-02-26T11:21:08;17.40;44.20
1614;DHT22;800;48.824;9.346;2024-02-26T11:23:34;17.60;44.00
1614;DHT22;800;48.824;9.346;2024-02-26T11:26:04;17.60;43.60
1614;DHT22;800;48.824;9.346;2024-02-26T11:28:32;17.60;43.60
1614;DHT22;800;48.824;9.346;2024-02-26T11:30:59;17.70;43.50
1614;DHT22;800;48.824;9.346;2024-02-26T11:33:26;17.60;42.50
1614;DHT22;800;48.824;9.346;2024-02-26T11:35:51;17.50;43.80
1614;DHT22;800;48.824;9.346;2024-02-26T11:38:23;17.70;44.30
1614;DHT22;800;48.824;9.346;2024-02-26T11:40:50;18.00;42.90
1614;DHT22;800;48.824;9.346;2024-02-26T11:43:16;17.90;42.30
1614;DHT22;800;48.824;9.346;2024-02-26T11:48:12;18.10;41.60
1614;DHT22;800;48.824;9.346;2024-02-26T11:50:47;18.00;41.70
1614;DHT22;800;48.824;9.346;2024-02-26T11:55:45;17.80;42.10
1614;DHT22;800;48.824;9.346;2024-02-26T11:58:10;18.00;42.40
1614;DHT22;800;48.824;9.346;2024-02-26T12:00:36;17.90;41.30
1614;DHT22;800;48.824;9.346;2024-02-26T12:03:02;17.60;42.30
1614;DHT22;800;48.824;9.346;2024-02-26T12:05:34;17.60;42.50
1614;DHT22;800;48.824;9.346;2024-02-26T12:08:06;17.20;42.20
1614;DHT22;800;48.824;9.346;2024-02-26T12:10:39;17.40;43.10
1614;DHT22;800;48.824;9.346;2024-02-26T12:13:10;17.60;42.90
1614;DHT22;800;48.824;9.346;2024-02-26T12:15:39;18.00;43.00
1614;DHT22;800;48.824;9.346;2024-02-26T12:18:09;18.30;42.70
1614;DHT22;800;48.824;9.346;2024-02-26T12:20:36;18.40;42.30
1614;DHT22;800;48.824;9.346;2024-02-26T12:23:05;18.60;42.10
1614;DHT22;800;48.824;9.346;2024-02-26T12:25:31;18.80;41.70
1614;DHT22;800;48.824;9.346;2024-02-26T12:27:58;19.00;42.40
1614;DHT22;800;48.824;9.346;2024-02-26T12:30:25;19.10;42.90
1614;DHT22;800;48.824;9.346;2024-02-26T12:32:55;19.10;42.60
1614;DHT22;800;48.824;9.346;2024-02-26T12:35:26;19.00;40.30
1614;DHT22;800;48.824;9.346;2024-02-26T12:37:53;18.80;39.30
1614;DHT22;800;48.824;9.346;2024-02-26T12:40:19;18.80;40.00
1614;DHT22;800;48.824;9.346;2024-02-26T12:42:45;18.50;39.60
1614;DHT22;800;48.824;9.346;2024-02-26T12:45:12;18.70;40.00
1614;DHT22;800;48.824;9.346;2024-02-26T12:47:42;18.90;39.40
1614;DHT22;800;48.824;9.346;2024-02-26T12:50:09;18.80;40.20
1614;DHT22;800;48.824;9.346;2024-02-26T12:52:36;18.70;40.10
1614;DHT22;800;48.824;9.346;2024-02-26T12:55:02;18.90;39.30
1614;DHT22;800;48.824;9.346;2024-02-26T12:57:31;19.20;39.70
1614;DHT22;800;48.824;9.346;2024-02-26T13:00:00;19.30;40.10
1614;DHT22;800;48.824;9.346;2024-02-26T13:02:27;19.20;39.80
1614;DHT22;800;48.824;9.346;2024-02-26T13:04:53;19.20;39.30
1614;DHT22;800;48.824;9.346;2024-02-26T13:07:20;19.30;39.70
1614;DHT22;800;48.824;9.346;2024-02-26T13:09:46;19.50;40.00
1614;DHT22;800;48.824;9.346;2024-02-26T13:12:12;19.60;39.60
1614;DHT22;800;48.824;9.346;2024-02-26T13:14:39;19.70;39.20
1614;DHT22;800;48.824;9.346;2024-02-26T13:17:05;19.90;39.70
1614;DHT22;800;48.824;9.346;2024-02-26T13:19:30;20.10;39.40
1614;DHT22;800;48.824;9.346;2024-02-26T13:21:56;20.00;38.40
1614;DHT22;800;48.824;9.346;2024-02-26T13:24:28;19.90;38.80
1614;DHT22;800;48.824;9.346;2024-02-26T13:26:56;19.90;39.10
1614;DHT22;800;48.824;9.346;2024-02-26T13:29:22;19.90;39.20
1614;DHT22;800;48.824;9.346;2024-02-26T13:31:47;20.10;39.30
1614;DHT22;800;48.824;9.346;2024-02-26T13:34:26;19.90;39.60
1614;DHT22;800;48.824;9.346;2024-02-26T13:36:56;20.00;39.70
1614;DHT22;800;48.824;9.346;2024-02-26T13:39:25;20.00;39.10
1614;DHT22;800;48.824;9.346;2024-02-26T13:41:52;20.20;39.00
1614;DHT22;800;48.824;9.346;2024-02-26T13:44:19;20.30;39.00
1614;DHT22;800;48.824;9.346;2024-02-26T13:46:44;20.20;38.70
1614;DHT22;800;48.824;9.346;2024-02-26T13:49:10;20.20;38.90
1614;DHT22;800;48.824;9.346;2024-02-26T13:51:37;20.20;38.80
1614;DHT22;800;48.824;9.346;2024-02-26T13:54:03;20.30;39.20
1614;DHT22;800;48.824;9.346;2024-02-26T13:56:29;20.20;38.60
1614;DHT22;800;48.824;9.346;2024-02-26T13:58:55;20.00;39.00
1614;DHT22;800;48.824;9.346;2024-02-26T14:01:20;19.60;38.70
1614;DHT22;800;48.824;9.346;2024-02-26T14:03:46;19.40;39.90
1614;DHT22;800;48.824;9.346;2024-02-26T14:06:11;19.40;40.30
1614;DHT22;800;48.824;9.346;2024-02-26T14:08:37;19.50;40.60
1614;DHT22;800;48.824;9.346;2024-02-26T14:11:02;19.60;40.80
1614;DHT22;800;48.824;9.346;2024-02-26T14:13:28;19.60;40.40
1614;DHT22;800;48.824;9.346;2024-02-26T14:15:54;19.70;40.10
1614;DHT22;800;48.824;9.346;2024-02-26T14:18:19;19.90;40.20
1614;DHT22;800;48.824;9.346;2024-02-26T14:20:45;20.00;40.00
1614;DHT22;800;48.824;9.346;2024-02-26T14:23:10;20.10;39.70
1614;DHT22;800;48.824;9.346;2024-02-26T14:25:36;20.20;39.00
1614;DHT22;800;48.824;9.346;2024-02-26T14:28:02;20.40;39.10
1614;DHT22;800;48.824;9.346;2024-02-26T14:30:28;20.30;39.30
1614;DHT22;800;48.824;9.346;2024-02-26T14:32:54;20.10;38.80
1614;DHT22;800;48.824;9.346;2024-02-26T14:35:19;19.80;39.40
1614;DHT22;800;48.824;9.346;2024-02-26T14:37:45;19.70;40.10
1614;DHT22;800;48.824;9.346;2024-02-26T14:40:15;19.80;39.90
1614;DHT22;800;48.824;9.346;2024-02-26T14:42:41;19.80;40.10
1614;DHT22;800;48.824;9.346;2024-02-26T14:45:08;19.70;40.00
1614;DHT22;800;48.824;9.346;2024-02-26T14:47:35;19.50;40.50
1614;DHT22;800;48.824;9.346;2024-02-26T14:50:01;19.90;41.00
1614;DHT22;800;48.824;9.346;2024-02-26T14:52:26;20.10;40.50
1614;DHT22;800;48.824;9.346;2024-02-26T14:54:52;20.10;39.40
1614;DHT22;800;48.824;9.346;2024-02-26T14:57:18;20.00;40.40
1614;DHT22;800;48.824;9.346;2024-02-26T14:59:44;19.90;39.90
1614;DHT22;800;48.824;9.346;2024-02-26T15:02:10;19.90;40.30
1614;DHT22;800;48.824;9.346;2024-02-26T15:04:38;20.10;39.70
1614;DHT22;800;48.824;9.346;2024-02-26T15:07:04;20.20;39.70
1614;DHT22;800;48.824;9.346;2024-02-26T15:09:29;20.10;39.40
1614;DHT22;800;48.824;9.346;2024-02-26T15:11:55;20.20;39.20
1614;DHT22;800;48.824;9.346;2024-02-26T15:14:23;20.20;39.40
1614;DHT22;800;48.824;9.346;2024-02-26T15:16:48;20.30;39.50
1614;DHT22;800;48.824;9.346;2024-02-26T15:19:14;20.40;38.80
1614;DHT22;800;48.824;9.346;2024-02-26T15:21:43;20.50;38.60
1614;DHT22;800;48.824;9.346;2024-02-26T15:24:09;20.60;38.70
1614;DHT22;800;48.824;9.346;2024-02-26T15:26:37;20.70;38.60
1614;DHT22;800;48.824;9.346;2024-02-26T15:29:02;20.60;38.70
1614;DHT22;800;48.824;9.346;2024-02-26T15:31:28;20.60;39.00
1614;DHT22;800;48.824;9.346;2024-02-26T15:33:53;20.50;39.10
1614;DHT22;800;48.824;9.346;2024-02-26T15:36:19;20.50;38.90
1614;DHT22;800;48.824;9.346;2024-02-26T15:38:44;20.40;38.90
1614;DHT22;800;48.824;9.346;2024-02-26T15:41:13;20.40;38.80
1614;DHT22;800;48.824;9.346;2024-02-26T15:43:39;20.50;39.30
1614;DHT22;800;48.824;9.346;2024-02-26T15:46:05;20.40;38.90
1614;DHT22;800;48.824;9.346;2024-02-26T15:48:33;20.40;39.20
1614;DHT22;800;48.824;9.346;2024-02-26T15:50:59;20.30;39.30
1614;DHT22;800;48.824;9.346;2024-02-26T15:53:24;20.10;39.20
1614;DHT22;800;48.824;9.346;2024-02-26T15:55:50;19.90;39.50
1614;DHT22;800;48.824;9.346;2024-02-26T15:58:16;19.80;39.80
1614;DHT22;800;48.824;9.346;2024-02-26T16:00:42;19.70;39.90
1614;DHT22;800;48.824;9.346;2024-02-26T16:03:11;19.50;40.00
1614;DHT22;800;48.824;9.346;2024-02-26T16:05:37;19.50;41.00
1614;DHT22;800;48.824;9.346;2024-02-26T16:08:17;19.40;40.40
1614;DHT22;800;48.824;9.346;2024-02-26T16:10:46;19.20;40.60
1614;DHT22;800;48.824;9.346;2024-02-26T16:13:12;19.20;40.90
1614;DHT22;800;48.824;9.346;2024-02-26T16:15:42;19.10;40.80
1614;DHT22;800;48.824;9.346;2024-02-26T16:18:08;18.90;41.30
1614;DHT22;800;48.824;9.346;2024-02-26T16:20:34;18.90;40.80
1614;DHT22;800;48.824;9.346;2024-02-26T16:23:00;18.60;40.50
1614;DHT22;800;48.824;9.346;2024-02-26T16:25:30;18.60;41.10
1614;DHT22;800;48.824;9.346;2024-02-26T16:27:56;18.70;40.50
1614;DHT22;800;48.824;9.346;2024-02-26T16:30:21;18.70;40.10
1614;DHT22;800;48.824;9.346;2024-02-26T16:32:47;18.70;39.60